sensor_id;sensor_type;location;lat;lon;timestamp;P1;durP1;ratioP1;P2;durP2;ratioP2
50225;SDS011;36113;50.742;6.432;2023-11-19T00:01:26;0.30;;;0.30;;
50225;SDS011;36113;50.742;6.432;2023-11-19T00:03:51;0.38;;;0.30;;
50225;SDS011;36113;50.742;6.432;2023-11-19T00:06:16;0.50;;;0.30;;
50225;SDS011;36113;50.742;6.432;2023-11-19T00:08:42;0.20;;;0.20;;
50225;SDS011;36113;50.742;6.432;2023-11-19T00:11:08;2.95;;;0.30;;
50225;SDS011;36113;50.742;6.432;2023-11-19T00:13:34;0.25;;;0.25;;
50225;SDS011;36113;50.742;6.432;2023-11-19T00:15:59;1.25;;;0.40;;
50225;SDS011;36113;50.742;6.432;2023-11-19T00:18:24;0.32;;;0.30;;
50225;SDS011;36113;50.742;6.432;2023-11-19T00:20:50;0.70;;;0.30;;
50225;SDS011;36113;50.742;6.432;2023-11-19T00:23:15;0.30;;;0.30;;
50225;SDS011;36113;50.742;6.432;2023-11-19T00:25:40;0.20;;;0.20;;
50225;SDS011;36113;50.742;6.432;2023-11-19T00:28:06;0.35;;;0.35;;
50225;SDS011;36113;50.742;6.432;2023-11-19T00:30:31;0.57;;;0.50;;
50225;SDS011;36113;50.742;6.432;2023-11-19T00:32:56;0.30;;;0.20;;
50225;SDS011;36113;50.742;6.432;2023-11-19T00:35:22;0.30;;;0.30;;
50225;SDS011;36113;50.742;6.432;2023-11-19T00:37:47;0.47;;;0.30;;
50225;SDS011;36113;50.742;6.432;2023-11-19T00:40:13;1.08;;;0.50;;
50225;SDS011;36113;50.742;6.432;2023-11-19T00:42:38;2.00;;;0.50;;
50225;SDS011;36113;50.742;6.432;2023-11-19T00:45:04;0.50;;;0.50;;
50225;SDS011;36113;50.742;6.432;2023-11-19T00:47:34;1.00;;;0.50;;
50225;SDS011;36113;50.742;6.432;2023-11-19T00:50:00;0.65;;;0.30;;
50225;SDS011;36113;50.742;6.432;2023-11-19T00:52:25;2.10;;;0.70;;
50225;SDS011;36113;50.742;6.432;2023-11-19T00:54:50;0.90;;;0.80;;
50225;SDS011;36113;50.742;6.432;2023-11-19T00:57:16;1.05;;;0.73;;
50225;SDS011;36113;50.742;6.432;2023-11-19T00:59:42;2.30;;;0.77;;
50225;SDS011;36113;50.742;6.432;2023-11-19T01:02:08;1.85;;;0.90;;
50225;SDS011;36113;50.742;6.432;2023-11-19T01:04:34;2.05;;;0.80;;
50225;SDS011;36113;50.742;6.432;2023-11-19T01:07:03;1.20;;;1.08;;
50225;SDS011;36113;50.742;6.432;2023-11-19T01:09:30;2.08;;;1.08;;
50225;SDS011;36113;50.742;6.432;2023-11-19T01:11:57;1.48;;;0.90;;
50225;SDS011;36113;50.742;6.432;2023-11-19T01:14:25;3.40;;;1.02;;
50225;SDS011;36113;50.742;6.432;2023-11-19T01:16:50;1.60;;;0.82;;
50225;SDS011;36113;50.742;6.432;2023-11-19T01:19:15;0.98;;;0.90;;
50225;SDS011;36113;50.742;6.432;2023-11-19T01:21:41;1.65;;;0.80;;
50225;SDS011;36113;50.742;6.432;2023-11-19T01:24:06;2.83;;;0.75;;
50225;SDS011;36113;50.742;6.432;2023-11-19T01:26:34;1.67;;;0.65;;
50225;SDS011;36113;50.742;6.432;2023-11-19T01:28:59;1.02;;;0.88;;
50225;SDS011;36113;50.742;6.432;2023-11-19T01:31:26;0.68;;;0.68;;
50225;SDS011;36113;50.742;6.432;2023-11-19T01:33:51;2.85;;;0.90;;
50225;SDS011;36113;50.742;6.432;2023-11-19T01:36:17;4.07;;;1.10;;
50225;SDS011;36113;50.742;6.432;2023-11-19T01:38:42;4.88;;;1.30;;
50225;SDS011;36113;50.742;6.432;2023-11-19T01:41:08;5.03;;;1.47;;
50225;SDS011;36113;50.742;6.432;2023-11-19T01:43:34;5.82;;;1.55;;
50225;SDS011;36113;50.742;6.432;2023-11-19T01:46:00;7.10;;;1.60;;
50225;SDS011;36113;50.742;6.432;2023-11-19T01:48:26;5.65;;;1.40;;
50225;SDS011;36113;50.742;6.432;2023-11-19T01:50:51;3.60;;;1.60;;
50225;SDS011;36113;50.742;6.432;2023-11-19T01:53:18;7.43;;;2.47;;
50225;SDS011;36113;50.742;6.432;2023-11-19T01:55:44;5.83;;;1.97;;
50225;SDS011;36113;50.742;6.432;2023-11-19T01:58:11;8.98;;;1.85;;
50225;SDS011;36113;50.742;6.432;2023-11-19T02:00:37;5.15;;;2.13;;
50225;SDS011;36113;50.742;6.432;2023-11-19T02:03:03;4.35;;;1.70;;
50225;SDS011;36113;50.742;6.432;2023-11-19T02:05:33;5.78;;;2.10;;
50225;SDS011;36113;50.742;6.432;2023-11-19T02:07:59;4.25;;;1.67;;
50225;SDS011;36113;50.742;6.432;2023-11-19T02:10:25;7.47;;;2.15;;
50225;SDS011;36113;50.742;6.432;2023-11-19T02:12:50;6.65;;;1.98;;
50225;SDS011;36113;50.742;6.432;2023-11-19T02:15:16;6.40;;;2.70;;
50225;SDS011;36113;50.742;6.432;2023-11-19T02:17:44;8.32;;;2.08;;
50225;SDS011;36113;50.742;6.432;2023-11-19T02:20:09;5.28;;;1.95;;
50225;SDS011;36113;50.742;6.432;2023-11-19T02:22:38;8.48;;;1.98;;
50225;SDS011;36113;50.742;6.432;2023-11-19T02:25:07;13.13;;;2.28;;
50225;SDS011;36113;50.742;6.432;2023-11-19T02:27:52;6.85;;;2.10;;
50225;SDS011;36113;50.742;6.432;2023-11-19T02:30:22;8.77;;;2.33;;
50225;SDS011;36113;50.742;6.432;2023-11-19T02:32:54;7.30;;;2.35;;
50225;SDS011;36113;50.742;6.432;2023-11-19T02:35:26;6.60;;;2.50;;
50225;SDS011;36113;50.742;6.432;2023-11-19T02:37:52;9.43;;;3.17;;
50225;SDS011;36113;50.742;6.432;2023-11-19T02:40:17;9.18;;;2.33;;
50225;SDS011;36113;50.742;6.432;2023-11-19T02:42:43;8.30;;;2.47;;
50225;SDS011;36113;50.742;6.432;2023-11-19T02:45:09;10.17;;;2.20;;
50225;SDS011;36113;50.742;6.432;2023-11-19T02:47:39;6.20;;;2.08;;
50225;SDS011;36113;50.742;6.432;2023-11-19T02:50:07;10.20;;;3.05;;
50225;SDS011;36113;50.742;6.432;2023-11-19T02:52:38;12.35;;;2.85;;
50225;SDS011;36113;50.742;6.432;2023-11-19T02:55:04;10.07;;;2.58;;
50225;SDS011;36113;50.742;6.432;2023-11-19T02:57:34;8.85;;;2.08;;
50225;SDS011;36113;50.742;6.432;2023-11-19T03:00:00;7.88;;;2.05;;
50225;SDS011;36113;50.742;6.432;2023-11-19T03:02:25;10.45;;;2.25;;
50225;SDS011;36113;50.742;6.432;2023-11-19T03:04:58;7.85;;;2.05;;
50225;SDS011;36113;50.742;6.432;2023-11-19T03:07:24;6.35;;;1.50;;
50225;SDS011;36113;50.742;6.432;2023-11-19T03:09:50;16.40;;;2.50;;
50225;SDS011;36113;50.742;6.432;2023-11-19T03:12:15;2.58;;;1.70;;
50225;SDS011;36113;50.742;6.432;2023-11-19T03:14:40;6.75;;;1.65;;
50225;SDS011;36113;50.742;6.432;2023-11-19T03:17:06;9.73;;;1.77;;
50225;SDS011;36113;50.742;6.432;2023-11-19T03:19:31;6.78;;;1.90;;
50225;SDS011;36113;50.742;6.432;2023-11-19T03:21:56;11.57;;;2.40;;
50225;SDS011;36113;50.742;6.432;2023-11-19T03:24:22;8.65;;;2.00;;
50225;SDS011;36113;50.742;6.432;2023-11-19T03:26:49;4.90;;;1.80;;
50225;SDS011;36113;50.742;6.432;2023-11-19T03:29:15;8.18;;;1.52;;
50225;SDS011;36113;50.742;6.432;2023-11-19T03:31:43;4.88;;;1.90;;
50225;SDS011;36113;50.742;6.432;2023-11-19T03:34:09;10.30;;;2.28;;
50225;SDS011;36113;50.742;6.432;2023-11-19T03:36:35;4.60;;;2.05;;
50225;SDS011;36113;50.742;6.432;2023-11-19T03:39:00;9.68;;;2.03;;
50225;SDS011;36113;50.742;6.432;2023-11-19T03:41:26;5.90;;;2.15;;
50225;SDS011;36113;50.742;6.432;2023-11-19T03:43:51;4.35;;;1.55;;
50225;SDS011;36113;50.742;6.432;2023-11-19T03:46:17;5.63;;;2.00;;
50225;SDS011;36113;50.742;6.432;2023-11-19T03:48:43;5.50;;;2.67;;
50225;SDS011;36113;50.742;6.432;2023-11-19T03:51:09;6.63;;;1.60;;
50225;SDS011;36113;50.742;6.432;2023-11-19T03:53:34;8.65;;;2.13;;
50225;SDS011;36113;50.742;6.432;2023-11-19T03:56:00;8.90;;;2.37;;
50225;SDS011;36113;50.742;6.432;2023-11-19T03:58:25;7.68;;;1.85;;
50225;SDS011;36113;50.742;6.432;2023-11-19T04:00:51;9.90;;;2.50;;
50225;SDS011;36113;50.742;6.432;2023-11-19T04:03:17;6.60;;;1.95;;
50225;SDS011;36113;50.742;6.432;2023-11-19T04:05:44;6.13;;;2.60;;
50225;SDS011;36113;50.742;6.432;2023-11-19T04:08:10;3.80;;;2.10;;
50225;SDS011;36113;50.742;6.432;2023-11-19T04:10:35;8.05;;;1.80;;
50225;SDS011;36113;50.742;6.432;2023-11-19T04:13:00;8.75;;;2.00;;
50225;SDS011;36113;50.742;6.432;2023-11-19T04:15:26;9.43;;;2.17;;
50225;SDS011;36113;50.742;6.432;2023-11-19T04:17:51;9.88;;;2.28;;
50225;SDS011;36113;50.742;6.432;2023-11-19T04:20:16;9.25;;;2.00;;
50225;SDS011;36113;50.742;6.432;2023-11-19T04:22:42;7.90;;;2.22;;
50225;SDS011;36113;50.742;6.432;2023-11-19T04:25:07;8.43;;;2.10;;
50225;SDS011;36113;50.742;6.432;2023-11-19T04:27:33;9.32;;;2.85;;
50225;SDS011;36113;50.742;6.432;2023-11-19T04:29:58;6.38;;;2.05;;
50225;SDS011;36113;50.742;6.432;2023-11-19T04:34:51;12.32;;;2.58;;
50225;SDS011;36113;50.742;6.432;2023-11-19T04:37:17;10.48;;;2.15;;
50225;SDS011;36113;50.742;6.432;2023-11-19T04:39:43;11.43;;;2.72;;
50225;SDS011;36113;50.742;6.432;2023-11-19T04:42:09;7.93;;;2.28;;
50225;SDS011;36113;50.742;6.432;2023-11-19T04:44:34;9.85;;;2.20;;
50225;SDS011;36113;50.742;6.432;2023-11-19T04:47:00;6.53;;;2.00;;
50225;SDS011;36113;50.742;6.432;2023-11-19T04:49:25;12.38;;;2.00;;
50225;SDS011;36113;50.742;6.432;2023-11-19T04:51:52;11.38;;;2.08;;
50225;SDS011;36113;50.742;6.432;2023-11-19T04:54:17;8.77;;;2.38;;
50225;SDS011;36113;50.742;6.432;2023-11-19T04:56:46;10.27;;;2.50;;
50225;SDS011;36113;50.742;6.432;2023-11-19T04:59:12;8.57;;;2.20;;
50225;SDS011;36113;50.742;6.432;2023-11-19T05:01:37;10.63;;;2.20;;
50225;SDS011;36113;50.742;6.432;2023-11-19T05:04:03;9.77;;;2.75;;
50225;SDS011;36113;50.742;6.432;2023-11-19T05:06:28;5.78;;;2.13;;
50225;SDS011;36113;50.742;6.432;2023-11-19T05:08:54;10.13;;;2.03;;
50225;SDS011;36113;50.742;6.432;2023-11-19T05:11:20;16.90;;;2.83;;
50225;SDS011;36113;50.742;6.432;2023-11-19T05:13:46;11.38;;;2.20;;
50225;SDS011;36113;50.742;6.432;2023-11-19T05:16:11;11.73;;;2.00;;
50225;SDS011;36113;50.742;6.432;2023-11-19T05:18:40;4.82;;;1.60;;
50225;SDS011;36113;50.742;6.432;2023-11-19T05:21:05;12.90;;;2.35;;
50225;SDS011;36113;50.742;6.432;2023-11-19T05:23:32;17.67;;;2.77;;
50225;SDS011;36113;50.742;6.432;2023-11-19T05:25:58;12.25;;;2.13;;
50225;SDS011;36113;50.742;6.432;2023-11-19T05:28:24;14.50;;;2.58;;
50225;SDS011;36113;50.742;6.432;2023-11-19T05:30:51;11.68;;;2.53;;
50225;SDS011;36113;50.742;6.432;2023-11-19T05:33:16;10.85;;;2.42;;
50225;SDS011;36113;50.742;6.432;2023-11-19T05:35:41;13.13;;;2.17;;
50225;SDS011;36113;50.742;6.432;2023-11-19T05:38:07;13.57;;;2.40;;
50225;SDS011;36113;50.742;6.432;2023-11-19T05:40:32;7.32;;;2.00;;
50225;SDS011;36113;50.742;6.432;2023-11-19T05:42:58;11.07;;;2.22;;
50225;SDS011;36113;50.742;6.432;2023-11-19T05:45:23;7.40;;;2.75;;
50225;SDS011;36113;50.742;6.432;2023-11-19T05:47:48;12.80;;;2.42;;
50225;SDS011;36113;50.742;6.432;2023-11-19T05:50:13;10.32;;;2.42;;
50225;SDS011;36113;50.742;6.432;2023-11-19T05:52:39;12.20;;;3.42;;
50225;SDS011;36113;50.742;6.432;2023-11-19T05:55:04;10.25;;;2.53;;
50225;SDS011;36113;50.742;6.432;2023-11-19T05:57:34;9.25;;;2.25;;
50225;SDS011;36113;50.742;6.432;2023-11-19T06:00:00;11.13;;;2.22;;
50225;SDS011;36113;50.742;6.432;2023-11-19T06:02:25;8.18;;;1.98;;
50225;SDS011;36113;50.742;6.432;2023-11-19T06:04:52;13.55;;;2.03;;
50225;SDS011;36113;50.742;6.432;2023-11-19T06:07:18;19.50;;;2.93;;
50225;SDS011;36113;50.742;6.432;2023-11-19T06:09:43;7.90;;;2.45;;
50225;SDS011;36113;50.742;6.432;2023-11-19T06:12:09;11.10;;;2.90;;
50225;SDS011;36113;50.742;6.432;2023-11-19T06:14:34;9.07;;;2.70;;
50225;SDS011;36113;50.742;6.432;2023-11-19T06:16:59;12.32;;;2.65;;
50225;SDS011;36113;50.742;6.432;2023-11-19T06:19:25;12.95;;;3.15;;
50225;SDS011;36113;50.742;6.432;2023-11-19T06:21:50;13.60;;;2.35;;
50225;SDS011;36113;50.742;6.432;2023-11-19T06:24:16;13.55;;;2.30;;
50225;SDS011;36113;50.742;6.432;2023-11-19T06:26:41;16.27;;;2.95;;
50225;SDS011;36113;50.742;6.432;2023-11-19T06:29:06;13.93;;;2.92;;
50225;SDS011;36113;50.742;6.432;2023-11-19T06:31:32;15.27;;;3.05;;
50225;SDS011;36113;50.742;6.432;2023-11-19T06:33:57;16.60;;;2.80;;
50225;SDS011;36113;50.742;6.432;2023-11-19T06:36:22;13.43;;;2.75;;
50225;SDS011;36113;50.742;6.432;2023-11-19T06:38:47;8.05;;;3.10;;
50225;SDS011;36113;50.742;6.432;2023-11-19T06:41:13;17.02;;;2.92;;
50225;SDS011;36113;50.742;6.432;2023-11-19T06:43:38;22.35;;;3.78;;
50225;SDS011;36113;50.742;6.432;2023-11-19T06:46:04;12.40;;;2.53;;
50225;SDS011;36113;50.742;6.432;2023-11-19T06:50:57;13.40;;;2.78;;
50225;SDS011;36113;50.742;6.432;2023-11-19T06:53:22;16.73;;;3.53;;
50225;SDS011;36113;50.742;6.432;2023-11-19T06:55:47;18.67;;;4.68;;
50225;SDS011;36113;50.742;6.432;2023-11-19T06:58:13;23.15;;;4.90;;
50225;SDS011;36113;50.742;6.432;2023-11-19T07:00:38;25.83;;;4.57;;
50225;SDS011;36113;50.742;6.432;2023-11-19T07:03:03;19.80;;;4.85;;
50225;SDS011;36113;50.742;6.432;2023-11-19T07:05:30;17.48;;;3.65;;
50225;SDS011;36113;50.742;6.432;2023-11-19T07:07:56;15.07;;;2.60;;
50225;SDS011;36113;50.742;6.432;2023-11-19T07:10:21;12.02;;;3.60;;
50225;SDS011;36113;50.742;6.432;2023-11-19T07:12:47;15.23;;;3.33;;
50225;SDS011;36113;50.742;6.432;2023-11-19T07:15:15;18.10;;;3.50;;
50225;SDS011;36113;50.742;6.432;2023-11-19T07:17:42;20.88;;;4.22;;
50225;SDS011;36113;50.742;6.432;2023-11-19T07:20:09;10.00;;;2.97;;
50225;SDS011;36113;50.742;6.432;2023-11-19T07:22:38;17.85;;;3.20;;
50225;SDS011;36113;50.742;6.432;2023-11-19T07:25:04;10.85;;;3.05;;
50225;SDS011;36113;50.742;6.432;2023-11-19T07:27:29;16.55;;;3.38;;
50225;SDS011;36113;50.742;6.432;2023-11-19T07:29:58;14.45;;;3.00;;
50225;SDS011;36113;50.742;6.432;2023-11-19T07:32:23;19.60;;;3.00;;
50225;SDS011;36113;50.742;6.432;2023-11-19T07:34:48;11.50;;;3.47;;
50225;SDS011;36113;50.742;6.432;2023-11-19T07:37:13;18.83;;;3.83;;
50225;SDS011;36113;50.742;6.432;2023-11-19T07:39:39;19.02;;;3.75;;
50225;SDS011;36113;50.742;6.432;2023-11-19T07:42:06;21.70;;;3.75;;
50225;SDS011;36113;50.742;6.432;2023-11-19T07:44:31;18.88;;;3.28;;
50225;SDS011;36113;50.742;6.432;2023-11-19T07:46:57;13.15;;;3.50;;
50225;SDS011;36113;50.742;6.432;2023-11-19T07:49:23;17.92;;;3.65;;
50225;SDS011;36113;50.742;6.432;2023-11-19T07:51:48;25.23;;;4.22;;
50225;SDS011;36113;50.742;6.432;2023-11-19T07:54:14;19.25;;;3.75;;
50225;SDS011;36113;50.742;6.432;2023-11-19T07:56:39;16.00;;;2.90;;
50225;SDS011;36113;50.742;6.432;2023-11-19T07:59:04;22.92;;;4.50;;
50225;SDS011;36113;50.742;6.432;2023-11-19T08:01:30;17.48;;;4.07;;
50225;SDS011;36113;50.742;6.432;2023-11-19T08:03:55;18.73;;;4.10;;
50225;SDS011;36113;50.742;6.432;2023-11-19T08:06:20;19.63;;;4.55;;
50225;SDS011;36113;50.742;6.432;2023-11-19T08:08:46;21.38;;;4.70;;
50225;SDS011;36113;50.742;6.432;2023-11-19T08:11:13;19.15;;;5.43;;
50225;SDS011;36113;50.742;6.432;2023-11-19T08:13:38;19.67;;;5.10;;
50225;SDS011;36113;50.742;6.432;2023-11-19T08:16:04;17.45;;;3.63;;
50225;SDS011;36113;50.742;6.432;2023-11-19T08:18:29;18.85;;;4.10;;
50225;SDS011;36113;50.742;6.432;2023-11-19T08:20:55;21.45;;;3.28;;
50225;SDS011;36113;50.742;6.432;2023-11-19T08:23:21;19.15;;;3.90;;
50225;SDS011;36113;50.742;6.432;2023-11-19T08:25:48;17.52;;;4.88;;
50225;SDS011;36113;50.742;6.432;2023-11-19T08:28:14;16.00;;;4.10;;
50225;SDS011;36113;50.742;6.432;2023-11-19T08:30:40;21.48;;;4.15;;
50225;SDS011;36113;50.742;6.432;2023-11-19T08:33:05;14.80;;;3.72;;
50225;SDS011;36113;50.742;6.432;2023-11-19T08:35:32;19.03;;;4.23;;
50225;SDS011;36113;50.742;6.432;2023-11-19T08:37:57;19.13;;;3.92;;
50225;SDS011;36113;50.742;6.432;2023-11-19T08:40:24;13.35;;;3.75;;
50225;SDS011;36113;50.742;6.432;2023-11-19T08:42:50;22.55;;;3.72;;
50225;SDS011;36113;50.742;6.432;2023-11-19T08:45:16;14.02;;;3.45;;
50225;SDS011;36113;50.742;6.432;2023-11-19T08:47:41;22.50;;;3.97;;
50225;SDS011;36113;50.742;6.432;2023-11-19T08:50:07;27.30;;;4.13;;
50225;SDS011;36113;50.742;6.432;2023-11-19T08:52:33;20.33;;;3.30;;
50225;SDS011;36113;50.742;6.432;2023-11-19T08:54:58;15.68;;;3.88;;
50225;SDS011;36113;50.742;6.432;2023-11-19T08:57:23;14.48;;;4.07;;
50225;SDS011;36113;50.742;6.432;2023-11-19T08:59:49;15.60;;;3.25;;
50225;SDS011;36113;50.742;6.432;2023-11-19T09:02:14;17.65;;;3.88;;
50225;SDS011;36113;50.742;6.432;2023-11-19T09:04:41;16.63;;;4.07;;
50225;SDS011;36113;50.742;6.432;2023-11-19T09:07:06;17.85;;;2.95;;
50225;SDS011;36113;50.742;6.432;2023-11-19T09:09:34;20.75;;;3.67;;
50225;SDS011;36113;50.742;6.432;2023-11-19T09:12:00;17.05;;;3.60;;
50225;SDS011;36113;50.742;6.432;2023-11-19T09:14:26;25.85;;;4.45;;
50225;SDS011;36113;50.742;6.432;2023-11-19T09:16:51;13.23;;;3.88;;
50225;SDS011;36113;50.742;6.432;2023-11-19T09:19:17;17.23;;;3.33;;
50225;SDS011;36113;50.742;6.432;2023-11-19T09:21:43;15.70;;;3.90;;
50225;SDS011;36113;50.742;6.432;2023-11-19T09:24:08;15.80;;;3.30;;
50225;SDS011;36113;50.742;6.432;2023-11-19T09:26:34;21.67;;;3.83;;
50225;SDS011;36113;50.742;6.432;2023-11-19T09:29:01;18.88;;;3.40;;
50225;SDS011;36113;50.742;6.432;2023-11-19T09:31:26;20.67;;;3.28;;
50225;SDS011;36113;50.742;6.432;2023-11-19T09:33:51;18.15;;;3.67;;
50225;SDS011;36113;50.742;6.432;2023-11-19T09:36:17;25.00;;;3.63;;
50225;SDS011;36113;50.742;6.432;2023-11-19T09:38:43;18.70;;;3.13;;
50225;SDS011;36113;50.742;6.432;2023-11-19T09:41:09;17.98;;;3.88;;
50225;SDS011;36113;50.742;6.432;2023-11-19T09:43:37;20.17;;;4.13;;
50225;SDS011;36113;50.742;6.432;2023-11-19T09:46:04;23.25;;;3.85;;
50225;SDS011;36113;50.742;6.432;2023-11-19T09:48:32;26.58;;;3.72;;
50225;SDS011;36113;50.742;6.432;2023-11-19T09:51:00;13.65;;;3.67;;
50225;SDS011;36113;50.742;6.432;2023-11-19T09:53:26;18.33;;;3.40;;
50225;SDS011;36113;50.742;6.432;2023-11-19T09:55:52;13.25;;;3.08;;
50225;SDS011;36113;50.742;6.432;2023-11-19T09:58:18;22.67;;;2.63;;
50225;SDS011;36113;50.742;6.432;2023-11-19T10:00:43;14.93;;;2.63;;
50225;SDS011;36113;50.742;6.432;2023-11-19T10:03:09;20.70;;;4.22;;
50225;SDS011;36113;50.742;6.432;2023-11-19T10:05:39;17.35;;;3.03;;
50225;SDS011;36113;50.742;6.432;2023-11-19T10:08:06;15.70;;;3.10;;
50225;SDS011;36113;50.742;6.432;2023-11-19T10:10:32;16.00;;;3.15;;
50225;SDS011;36113;50.742;6.432;2023-11-19T10:12:58;17.20;;;3.05;;
50225;SDS011;36113;50.742;6.432;2023-11-19T10:15:25;15.88;;;3.65;;
50225;SDS011;36113;50.742;6.432;2023-11-19T10:17:52;18.17;;;3.30;;
50225;SDS011;36113;50.742;6.432;2023-11-19T10:20:23;19.38;;;3.40;;
50225;SDS011;36113;50.742;6.432;2023-11-19T10:22:52;15.20;;;2.88;;
50225;SDS011;36113;50.742;6.432;2023-11-19T10:25:27;14.68;;;3.33;;
50225;SDS011;36113;50.742;6.432;2023-11-19T10:27:54;17.80;;;3.53;;
50225;SDS011;36113;50.742;6.432;2023-11-19T10:30:21;15.85;;;3.03;;
50225;SDS011;36113;50.742;6.432;2023-11-19T10:33:04;19.08;;;4.47;;
50225;SDS011;36113;50.742;6.432;2023-11-19T10:35:51;23.02;;;4.40;;
50225;SDS011;36113;50.742;6.432;2023-11-19T10:38:18;14.45;;;3.85;;
50225;SDS011;36113;50.742;6.432;2023-11-19T10:40:44;16.13;;;3.83;;
50225;SDS011;36113;50.742;6.432;2023-11-19T10:43:09;17.55;;;3.05;;
50225;SDS011;36113;50.742;6.432;2023-11-19T10:45:35;13.93;;;3.38;;
50225;SDS011;36113;50.742;6.432;2023-11-19T10:48:02;10.27;;;3.20;;
50225;SDS011;36113;50.742;6.432;2023-11-19T10:50:31;17.83;;;3.45;;
50225;SDS011;36113;50.742;6.432;2023-11-19T10:52:56;16.05;;;3.53;;
50225;SDS011;36113;50.742;6.432;2023-11-19T10:55:29;10.35;;;2.53;;
50225;SDS011;36113;50.742;6.432;2023-11-19T10:58:16;17.95;;;2.95;;
50225;SDS011;36113;50.742;6.432;2023-11-19T11:03:17;15.65;;;3.97;;
50225;SDS011;36113;50.742;6.432;2023-11-19T11:05:45;19.02;;;3.72;;
50225;SDS011;36113;50.742;6.432;2023-11-19T11:08:12;13.88;;;3.03;;
50225;SDS011;36113;50.742;6.432;2023-11-19T11:10:59;12.30;;;3.30;;
50225;SDS011;36113;50.742;6.432;2023-11-19T11:13:25;11.88;;;2.88;;
50225;SDS011;36113;50.742;6.432;2023-11-19T11:15:53;11.27;;;3.03;;
50225;SDS011;36113;50.742;6.432;2023-11-19T11:18:22;23.73;;;3.50;;
50225;SDS011;36113;50.742;6.432;2023-11-19T11:33:55;17.13;;;3.22;;
50225;SDS011;36113;50.742;6.432;2023-11-19T11:36:49;17.33;;;3.55;;
50225;SDS011;36113;50.742;6.432;2023-11-19T11:39:23;10.52;;;2.40;;
50225;SDS011;36113;50.742;6.432;2023-11-19T11:50:07;13.82;;;3.03;;
50225;SDS011;36113;50.742;6.432;2023-11-19T11:52:41;14.00;;;2.78;;
50225;SDS011;36113;50.742;6.432;2023-11-19T11:56:07;15.70;;;2.83;;
50225;SDS011;36113;50.742;6.432;2023-11-19T11:58:15;15.65;;;3.10;;
50225;SDS011;36113;50.742;6.432;2023-11-19T12:00:42;11.32;;;2.97;;
50225;SDS011;36113;50.742;6.432;2023-11-19T12:03:08;10.93;;;2.50;;
50225;SDS011;36113;50.742;6.432;2023-11-19T12:05:45;10.95;;;2.50;;
50225;SDS011;36113;50.742;6.432;2023-11-19T12:08:14;11.73;;;2.55;;
50225;SDS011;36113;50.742;6.432;2023-11-19T12:13:15;12.63;;;2.88;;
50225;SDS011;36113;50.742;6.432;2023-11-19T12:18:28;12.75;;;2.42;;
50225;SDS011;36113;50.742;6.432;2023-11-19T12:20:55;15.60;;;3.17;;
50225;SDS011;36113;50.742;6.432;2023-11-19T12:23:22;17.33;;;2.97;;
50225;SDS011;36113;50.742;6.432;2023-11-19T12:25:47;14.00;;;2.83;;
50225;SDS011;36113;50.742;6.432;2023-11-19T12:28:13;9.85;;;2.22;;
50225;SDS011;36113;50.742;6.432;2023-11-19T12:30:41;15.80;;;3.25;;
50225;SDS011;36113;50.742;6.432;2023-11-19T12:33:09;11.60;;;2.38;;
50225;SDS011;36113;50.742;6.432;2023-11-19T12:35:41;14.95;;;3.15;;
50225;SDS011;36113;50.742;6.432;2023-11-19T12:38:18;12.90;;;3.08;;
50225;SDS011;36113;50.742;6.432;2023-11-19T12:40:45;10.02;;;2.40;;
50225;SDS011;36113;50.742;6.432;2023-11-19T12:43:11;10.95;;;2.65;;
50225;SDS011;36113;50.742;6.432;2023-11-19T12:45:47;18.35;;;2.83;;
50225;SDS011;36113;50.742;6.432;2023-11-19T12:48:13;16.10;;;2.65;;
50225;SDS011;36113;50.742;6.432;2023-11-19T12:50:54;21.48;;;3.25;;
50225;SDS011;36113;50.742;6.432;2023-11-19T12:53:22;13.05;;;2.90;;
50225;SDS011;36113;50.742;6.432;2023-11-19T12:55:48;11.10;;;2.78;;
50225;SDS011;36113;50.742;6.432;2023-11-19T13:01:02;16.75;;;3.00;;
50225;SDS011;36113;50.742;6.432;2023-11-19T13:03:29;11.93;;;2.75;;
50225;SDS011;36113;50.742;6.432;2023-11-19T13:06:09;17.83;;;3.72;;
50225;SDS011;36113;50.742;6.432;2023-11-19T13:08:42;19.73;;;2.85;;
50225;SDS011;36113;50.742;6.432;2023-11-19T13:11:10;22.38;;;3.22;;
50225;SDS011;36113;50.742;6.432;2023-11-19T13:16:21;16.67;;;2.90;;
50225;SDS011;36113;50.742;6.432;2023-11-19T13:18:46;11.27;;;3.22;;
50225;SDS011;36113;50.742;6.432;2023-11-19T13:21:12;12.98;;;2.72;;
50225;SDS011;36113;50.742;6.432;2023-11-19T13:23:38;17.38;;;2.90;;
50225;SDS011;36113;50.742;6.432;2023-11-19T13:26:03;16.55;;;3.33;;
50225;SDS011;36113;50.742;6.432;2023-11-19T13:28:29;12.18;;;2.58;;
50225;SDS011;36113;50.742;6.432;2023-11-19T13:30:54;15.43;;;3.55;;
50225;SDS011;36113;50.742;6.432;2023-11-19T13:33:20;22.00;;;3.42;;
50225;SDS011;36113;50.742;6.432;2023-11-19T13:35:45;16.42;;;3.22;;
50225;SDS011;36113;50.742;6.432;2023-11-19T13:38:10;13.43;;;3.00;;
50225;SDS011;36113;50.742;6.432;2023-11-19T13:40:35;12.70;;;2.35;;
50225;SDS011;36113;50.742;6.432;2023-11-19T13:43:01;22.02;;;3.55;;
50225;SDS011;36113;50.742;6.432;2023-11-19T13:45:26;17.63;;;3.15;;
50225;SDS011;36113;50.742;6.432;2023-11-19T13:47:51;12.75;;;2.60;;
50225;SDS011;36113;50.742;6.432;2023-11-19T13:50:17;16.17;;;3.45;;
50225;SDS011;36113;50.742;6.432;2023-11-19T13:52:43;14.85;;;2.75;;
50225;SDS011;36113;50.742;6.432;2023-11-19T13:55:11;7.68;;;2.65;;
50225;SDS011;36113;50.742;6.432;2023-11-19T13:57:37;14.03;;;2.40;;
50225;SDS011;36113;50.742;6.432;2023-11-19T14:00:03;12.77;;;2.92;;
50225;SDS011;36113;50.742;6.432;2023-11-19T14:02:31;10.55;;;2.10;;
50225;SDS011;36113;50.742;6.432;2023-11-19T14:04:56;7.90;;;2.13;;
50225;SDS011;36113;50.742;6.432;2023-11-19T14:07:22;12.98;;;3.10;;
50225;SDS011;36113;50.742;6.432;2023-11-19T14:09:47;14.18;;;2.55;;
50225;SDS011;36113;50.742;6.432;2023-11-19T14:12:13;17.05;;;3.03;;
50225;SDS011;36113;50.742;6.432;2023-11-19T14:14:38;13.77;;;2.63;;
50225;SDS011;36113;50.742;6.432;2023-11-19T14:17:04;18.17;;;3.23;;
50225;SDS011;36113;50.742;6.432;2023-11-19T14:19:30;11.75;;;2.80;;
50225;SDS011;36113;50.742;6.432;2023-11-19T14:21:55;14.52;;;2.95;;
50225;SDS011;36113;50.742;6.432;2023-11-19T14:24:20;12.60;;;2.67;;
50225;SDS011;36113;50.742;6.432;2023-11-19T14:26:46;15.57;;;3.28;;
50225;SDS011;36113;50.742;6.432;2023-11-19T14:29:16;8.88;;;2.35;;
50225;SDS011;36113;50.742;6.432;2023-11-19T14:31:41;13.27;;;3.05;;
50225;SDS011;36113;50.742;6.432;2023-11-19T14:34:06;8.35;;;2.85;;
50225;SDS011;36113;50.742;6.432;2023-11-19T14:36:32;14.98;;;3.22;;
50225;SDS011;36113;50.742;6.432;2023-11-19T14:38:57;13.55;;;3.50;;
50225;SDS011;36113;50.742;6.432;2023-11-19T14:41:23;18.45;;;3.80;;
50225;SDS011;36113;50.742;6.432;2023-11-19T14:43:49;9.85;;;2.80;;
50225;SDS011;36113;50.742;6.432;2023-11-19T14:46:15;11.18;;;2.90;;
50225;SDS011;36113;50.742;6.432;2023-11-19T14:48:40;13.07;;;2.47;;
50225;SDS011;36113;50.742;6.432;2023-11-19T14:51:05;15.02;;;2.50;;
50225;SDS011;36113;50.742;6.432;2023-11-19T14:53:31;17.70;;;3.00;;
50225;SDS011;36113;50.742;6.432;2023-11-19T14:55:57;10.07;;;2.70;;
50225;SDS011;36113;50.742;6.432;2023-11-19T14:58:22;13.15;;;3.17;;
50225;SDS011;36113;50.742;6.432;2023-11-19T15:00:47;22.98;;;4.10;;
50225;SDS011;36113;50.742;6.432;2023-11-19T15:03:13;15.10;;;2.80;;
50225;SDS011;36113;50.742;6.432;2023-11-19T15:05:41;10.90;;;2.58;;
50225;SDS011;36113;50.742;6.432;2023-11-19T15:08:06;14.05;;;2.75;;
50225;SDS011;36113;50.742;6.432;2023-11-19T15:10:31;8.13;;;2.42;;
50225;SDS011;36113;50.742;6.432;2023-11-19T15:12:57;12.25;;;2.88;;
50225;SDS011;36113;50.742;6.432;2023-11-19T15:15:22;12.93;;;2.88;;